createdAt,value
2018-10-18T00:01:11.547Z,53.32
2018-10-18T00:03:40.196Z,53.24
2018-10-18T00:06:08.950Z,53.43
2018-10-18T00:08:37.595Z,53.38
2018-10-18T00:11:06.640Z,53.49
2018-10-18T00:13:35.508Z,53.37
2018-10-18T00:16:04.236Z,53.47
2018-10-18T00:18:32.902Z,53.33
2018-10-18T00:21:01.540Z,53.69
2018-10-18T00:23:30.175Z,53.21
2018-10-18T00:25:58.792Z,53.91
2018-10-18T00:28:27.457Z,53.76
2018-10-18T00:30:56.100Z,53.74
2018-10-18T00:33:24.739Z,53.59
2018-10-18T00:35:53.437Z,53.86
2018-10-18T00:38:22.137Z,53.63
2018-10-18T00:40:50.817Z,54.01
2018-10-18T00:43:19.458Z,53.77
2018-10-18T00:45:48.142Z,53.85
2018-10-18T00:48:16.871Z,53.96
2018-10-18T00:50:45.473Z,54.38
2018-10-18T00:53:14.122Z,54.03
2018-10-18T00:55:42.770Z,54.09
2018-10-18T00:58:11.496Z,54.15
2018-10-18T01:00:40.215Z,54.59
2018-10-18T01:03:08.912Z,55.12
2018-10-18T01:05:37.724Z,54.82
2018-10-18T01:08:06.514Z,55.41
2018-10-18T01:10:35.146Z,55.10
2018-10-18T01:13:03.990Z,55.37
2018-10-18T01:15:32.611Z,55.38
2018-10-18T01:18:01.308Z,55.44
2018-10-18T01:20:29.997Z,55.17
2018-10-18T01:22:58.639Z,55.29
2018-10-18T01:25:27.317Z,55.37
2018-10-18T01:27:56.004Z,55.78
2018-10-18T01:30:24.789Z,56.02
2018-10-18T01:32:53.368Z,56.20
2018-10-18T01:35:22.097Z,56.22
2018-10-18T01:37:50.734Z,56.25
2018-10-18T01:40:19.382Z,56.03
2018-10-18T01:42:48.029Z,56.12
2018-10-18T01:45:16.754Z,56.67
2018-10-18T01:47:45.352Z,56.59
2018-10-18T01:50:13.990Z,57.15
2018-10-18T01:52:42.646Z,57.45
2018-10-18T01:55:11.344Z,56.96
2018-10-18T01:57:40.083Z,57.13
2018-10-18T02:00:10.085Z,57.58
2018-10-18T02:02:39.057Z,57.29
2018-10-18T02:05:07.753Z,57.96
2018-10-18T02:07:36.462Z,57.98
2018-10-18T02:10:05.620Z,57.92
2018-10-18T02:12:34.246Z,58.05
2018-10-18T02:15:02.937Z,58.01
2018-10-18T02:17:31.640Z,58.00
2018-10-18T02:20:00.236Z,58.60
2018-10-18T02:22:28.899Z,58.79
2018-10-18T02:24:57.594Z,58.79
2018-10-18T02:27:26.219Z,58.62
2018-10-18T02:29:54.828Z,59.53
2018-10-18T02:32:23.553Z,59.47
2018-10-18T02:34:52.228Z,59.63
2018-10-18T02:37:20.846Z,59.24
2018-10-18T02:39:49.469Z,59.50
2018-10-18T02:42:18.133Z,60.09
2018-10-18T02:44:46.752Z,59.99
2018-10-18T02:47:15.439Z,60.26
2018-10-18T02:49:44.080Z,60.21
2018-10-18T02:52:12.977Z,60.32
2018-10-18T02:54:41.858Z,60.63
2018-10-18T02:57:10.573Z,61.04
2018-10-18T02:59:39.225Z,61.37
2018-10-18T03:02:08.401Z,61.70
2018-10-18T03:04:37.084Z,62.07
2018-10-18T03:07:06.101Z,61.55
2018-10-18T03:09:34.716Z,61.37
2018-10-18T03:12:03.490Z,61.28
2018-10-18T03:14:32.117Z,61.62
2018-10-18T03:17:00.845Z,61.62
2018-10-18T03:19:29.526Z,61.37
2018-10-18T03:21:58.196Z,60.88
2018-10-18T03:24:26.837Z,61.57
2018-10-18T03:26:55.488Z,61.38
2018-10-18T03:29:24.164Z,61.36
2018-10-18T03:31:52.773Z,61.79
2018-10-18T03:34:21.393Z,61.68
2018-10-18T03:36:50.008Z,61.74
2018-10-18T03:39:18.647Z,61.94
2018-10-18T03:41:47.697Z,62.34
2018-10-18T03:44:16.839Z,62.42
2018-10-18T03:46:45.546Z,62.60
2018-10-18T03:49:14.221Z,62.19
2018-10-18T03:51:42.856Z,62.60
2018-10-18T03:54:11.652Z,62.58
2018-10-18T03:56:40.269Z,62.21
2018-10-18T03:59:09.068Z,62.26
2018-10-18T04:01:37.691Z,62.40
2018-10-18T04:04:06.392Z,62.29
2018-10-18T04:06:36.195Z,62.47
2018-10-18T04:09:06.322Z,63.33
2018-10-18T04:11:35.457Z,63.48
2018-10-18T04:14:04.137Z,63.48
2018-10-18T04:16:32.744Z,63.70
2018-10-18T04:19:01.544Z,63.72
2018-10-18T04:21:30.391Z,63.71
2018-10-18T04:23:59.087Z,63.71
2018-10-18T04:26:27.679Z,63.92
2018-10-18T04:28:56.343Z,63.09
2018-10-18T04:31:24.997Z,63.37
2018-10-18T04:33:53.745Z,63.10
2018-10-18T04:36:22.463Z,64.09
2018-10-18T04:38:51.094Z,64.25
2018-10-18T04:41:19.701Z,64.33
2018-10-18T04:43:48.402Z,64.27
2018-10-18T04:46:17.093Z,64.73
2018-10-18T04:48:45.747Z,64.73
2018-10-18T04:51:14.415Z,64.48
2018-10-18T04:53:43.056Z,64.57
2018-10-18T04:56:11.743Z,64.79
2018-10-18T04:58:40.357Z,64.43
2018-10-18T05:01:09.101Z,64.44
2018-10-18T05:03:37.696Z,64.53
2018-10-18T05:06:07.000Z,64.81
2018-10-18T05:08:35.635Z,64.30
2018-10-18T05:11:04.315Z,64.35
2018-10-18T05:13:32.987Z,64.22
2018-10-18T05:16:01.673Z,63.83
2018-10-18T05:18:30.361Z,64.17
2018-10-18T05:20:59.050Z,63.93
2018-10-18T05:23:27.717Z,63.92
2018-10-18T05:25:56.400Z,63.30
2018-10-18T05:28:24.996Z,63.80
2018-10-18T05:30:53.702Z,63.58
2018-10-18T05:33:22.371Z,63.34
2018-10-18T05:35:51.057Z,63.33
2018-10-18T05:38:19.713Z,63.39
2018-10-18T05:40:48.450Z,63.16
2018-10-18T05:43:17.148Z,63.05
2018-10-18T05:45:45.718Z,63.52
2018-10-18T05:48:14.359Z,63.53
2018-10-18T05:50:43.015Z,62.97
2018-10-18T05:53:11.818Z,63.15
2018-10-18T05:55:40.442Z,62.99
2018-10-18T05:58:09.231Z,62.94
2018-10-18T06:00:37.981Z,62.61
2018-10-18T06:03:06.779Z,61.85
2018-10-18T06:05:35.468Z,61.42
2018-10-18T06:08:04.303Z,61.45
2018-10-18T06:10:44.034Z,60.86
2018-10-18T06:13:13.145Z,60.98
2018-10-18T06:15:41.776Z,60.77
2018-10-18T06:18:10.512Z,60.26
2018-10-18T06:20:39.304Z,60.14
2018-10-18T06:23:07.986Z,59.87
2018-10-18T06:25:36.754Z,59.85
2018-10-18T06:28:05.497Z,59.79
2018-10-18T06:30:34.304Z,59.48
2018-10-18T06:33:03.434Z,59.48
2018-10-18T06:35:32.255Z,59.42
2018-10-18T06:38:01.057Z,59.14
2018-10-18T06:40:29.721Z,58.54
2018-10-18T06:42:58.453Z,58.77
2018-10-18T06:45:27.955Z,58.89
2018-10-18T06:47:56.741Z,58.20
2018-10-18T06:50:25.486Z,57.94
2018-10-18T06:52:54.231Z,58.15
2018-10-18T06:55:22.928Z,57.72
2018-10-18T06:57:51.610Z,57.38
2018-10-18T07:00:24.590Z,57.06
2018-10-18T07:02:53.334Z,56.58
2018-10-18T07:05:22.149Z,56.42
2018-10-18T07:07:50.890Z,56.36
2018-10-18T07:10:22.065Z,55.32
2018-10-18T07:12:51.053Z,54.99
2018-10-18T07:15:19.903Z,55.48
2018-10-18T07:17:48.682Z,54.86
2018-10-18T07:20:17.363Z,54.19
2018-10-18T07:22:46.080Z,55.24
2018-10-18T07:25:15.991Z,55.23
2018-10-18T07:27:44.807Z,54.56
2018-10-18T07:30:20.229Z,54.44
2018-10-18T07:32:49.528Z,54.02
2018-10-18T07:35:18.244Z,53.58
2018-10-18T07:37:47.015Z,53.36
2018-10-18T07:40:16.688Z,53.35
2018-10-18T07:42:46.266Z,53.25
2018-10-18T07:45:15.615Z,52.91
2018-10-18T07:47:44.892Z,52.93
2018-10-18T07:50:13.987Z,53.27
2018-10-18T07:52:42.732Z,52.00
2018-10-18T07:55:11.704Z,51.85
2018-10-18T07:57:40.450Z,51.31
2018-10-18T08:00:11.770Z,51.28
2018-10-18T08:02:40.720Z,50.61
2018-10-18T08:05:09.970Z,50.28
2018-10-18T08:07:39.099Z,50.09
2018-10-18T08:10:10.737Z,49.98
2018-10-18T08:12:40.336Z,49.41
2018-10-18T08:15:10.365Z,49.22
2018-10-18T08:17:39.351Z,49.08
2018-10-18T08:20:08.976Z,49.05
2018-10-18T08:22:37.876Z,47.70
2018-10-18T08:25:06.720Z,47.81
2018-10-18T08:27:35.911Z,48.18
2018-10-18T08:30:08.301Z,47.63
2018-10-18T08:32:37.110Z,48.13
2018-10-18T08:35:07.510Z,47.23
2018-10-18T08:37:36.240Z,47.40
2018-10-18T08:40:05.488Z,46.97
2018-10-18T08:42:34.191Z,46.85
2018-10-18T08:45:02.961Z,46.44
2018-10-18T08:47:31.664Z,46.42
2018-10-18T08:50:00.490Z,46.36
2018-10-18T08:52:29.123Z,45.99
2018-10-18T08:54:57.958Z,46.50
2018-10-18T08:57:26.598Z,46.26
2018-10-18T08:59:55.359Z,45.96
2018-10-18T09:02:24.093Z,45.57
2018-10-18T09:04:52.941Z,44.69
2018-10-18T09:07:21.585Z,44.67
2018-10-18T09:09:50.289Z,44.13
2018-10-18T09:12:19.006Z,44.23
2018-10-18T09:14:47.725Z,43.56
2018-10-18T09:17:16.371Z,43.71
2018-10-18T09:19:45.085Z,42.65
2018-10-18T09:22:13.813Z,43.00
2018-10-18T09:24:42.513Z,41.53
2018-10-18T09:27:11.225Z,41.63
2018-10-18T09:29:39.923Z,41.24
2018-10-18T09:32:08.790Z,41.04
2018-10-18T09:34:37.501Z,41.01
2018-10-18T09:37:06.920Z,40.44
2018-10-18T09:39:35.609Z,40.09
2018-10-18T09:42:04.329Z,38.18
2018-10-18T09:44:33.146Z,37.84
2018-10-18T09:47:01.782Z,36.59
2018-10-18T09:49:30.501Z,36.93
2018-10-18T09:51:59.160Z,37.52
2018-10-18T09:54:27.852Z,38.62
2018-10-18T09:56:56.549Z,38.41
2018-10-18T09:59:25.352Z,38.81
2018-10-18T10:01:59.361Z,37.86
2018-10-18T10:04:28.116Z,37.40
2018-10-18T10:06:56.883Z,36.02
2018-10-18T10:09:25.700Z,36.14
2018-10-18T10:11:54.479Z,36.72
2018-10-18T10:14:23.227Z,34.37
2018-10-18T10:16:51.965Z,35.27
2018-10-18T10:19:20.684Z,34.40
2018-10-18T10:21:49.450Z,34.96
2018-10-18T10:24:18.141Z,33.62
2018-10-18T10:26:47.170Z,35.03
2018-10-18T10:29:16.074Z,35.55
2018-10-18T10:31:44.796Z,35.82
2018-10-18T10:34:13.595Z,34.40
2018-10-18T10:36:42.219Z,33.63
2018-10-18T10:39:11.153Z,33.44
2018-10-18T10:41:40.421Z,33.43
2018-10-18T10:44:10.256Z,33.04
2018-10-18T10:46:40.622Z,32.49
2018-10-18T10:49:09.939Z,32.22
2018-10-18T10:51:38.655Z,31.82
2018-10-18T10:54:08.364Z,31.96
2018-10-18T10:56:37.037Z,32.06
2018-10-18T10:59:16.914Z,31.44
2018-10-18T11:01:45.664Z,32.04
2018-10-18T11:04:14.512Z,31.88
2018-10-18T11:06:44.249Z,31.26
2018-10-18T11:09:13.335Z,30.88
2018-10-18T11:11:42.088Z,30.72
2018-10-18T11:14:10.834Z,30.92
2018-10-18T11:16:39.475Z,30.21
2018-10-18T11:19:10.768Z,30.83
2018-10-18T11:21:40.391Z,30.46
2018-10-18T11:24:09.158Z,30.83
2018-10-18T11:26:37.750Z,31.41
2018-10-18T11:29:06.786Z,31.12
2018-10-18T11:31:35.659Z,31.20
2018-10-18T11:34:04.354Z,30.84
2018-10-18T11:36:33.083Z,31.24
2018-10-18T11:39:01.782Z,32.56
2018-10-18T11:41:30.473Z,31.15
2018-10-18T11:43:59.182Z,30.08
2018-10-18T11:46:27.991Z,30.39
2018-10-18T11:48:56.642Z,29.23
2018-10-18T11:51:25.441Z,29.64
2018-10-18T11:53:54.118Z,30.31
2018-10-18T11:56:22.977Z,29.75
2018-10-18T11:58:51.714Z,29.50
2018-10-18T12:01:20.717Z,28.98
2018-10-18T12:03:49.387Z,30.10
2018-10-18T12:06:18.057Z,29.73
2018-10-18T12:08:46.737Z,28.71
2018-10-18T12:11:15.535Z,28.54
2018-10-18T12:13:44.105Z,28.94
2018-10-18T12:16:12.812Z,28.78
2018-10-18T12:18:41.525Z,28.70
2018-10-18T12:21:10.183Z,29.73
2018-10-18T12:23:38.919Z,29.28
2018-10-18T12:26:07.646Z,29.18
2018-10-18T12:28:36.387Z,29.76
2018-10-18T12:31:05.075Z,29.49
2018-10-18T12:33:33.759Z,30.02
2018-10-18T12:36:02.491Z,29.83
2018-10-18T12:38:31.274Z,29.97
2018-10-18T12:41:00.098Z,29.23
2018-10-18T12:43:28.679Z,29.36
2018-10-18T12:45:57.473Z,29.54
2018-10-18T12:48:26.220Z,29.21
2018-10-18T12:50:54.869Z,29.94
2018-10-18T12:53:23.606Z,30.18
2018-10-18T12:55:52.350Z,31.67
2018-10-18T12:58:21.015Z,31.07
2018-10-18T13:00:49.692Z,31.17
2018-10-18T13:03:18.383Z,31.19
2018-10-18T13:05:47.170Z,31.89
2018-10-18T13:08:16.075Z,31.50
2018-10-18T13:10:44.707Z,31.73
2018-10-18T13:13:14.688Z,30.64
2018-10-18T13:15:43.536Z,30.43
2018-10-18T13:18:12.360Z,30.00
2018-10-18T13:20:40.964Z,31.01
2018-10-18T13:23:09.746Z,30.02
2018-10-18T13:25:38.448Z,30.08
2018-10-18T13:28:07.207Z,30.22
2018-10-18T13:30:35.937Z,29.75
2018-10-18T13:33:04.680Z,29.73
2018-10-18T13:35:33.371Z,29.27
2018-10-18T13:38:02.151Z,29.11
2018-10-18T13:40:30.898Z,30.44
2018-10-18T13:42:59.591Z,30.87
2018-10-18T13:45:28.276Z,29.47
2018-10-18T13:47:57.103Z,29.19
2018-10-18T13:50:26.154Z,29.03
2018-10-18T13:52:54.883Z,30.10
2018-10-18T13:55:23.732Z,28.57
2018-10-18T13:57:52.501Z,28.81
2018-10-18T14:00:26.208Z,29.76
2018-10-18T14:02:55.579Z,29.16
2018-10-18T14:05:24.806Z,28.95
2018-10-18T14:07:54.339Z,30.16
2018-10-18T14:10:23.100Z,29.71
2018-10-18T14:12:52.628Z,30.58
2018-10-18T14:15:21.354Z,30.54
2018-10-18T14:17:50.140Z,30.91
2018-10-18T14:20:18.906Z,31.29
2018-10-18T14:22:47.534Z,31.81
2018-10-18T14:25:16.261Z,31.66
2018-10-18T14:27:45.018Z,30.86
2018-10-18T14:30:14.264Z,32.14
2018-10-18T14:32:42.932Z,31.47
2018-10-18T14:35:12.836Z,31.86
2018-10-18T14:37:41.660Z,32.31
2018-10-18T14:40:11.825Z,32.21
2018-10-18T14:42:40.529Z,32.24
2018-10-18T14:45:09.735Z,32.45
2018-10-18T14:47:38.570Z,33.77
2018-10-18T14:50:09.530Z,33.12
2018-10-18T14:52:38.186Z,33.64
2018-10-18T14:55:07.226Z,33.37
2018-10-18T14:57:36.022Z,34.30
2018-10-18T15:00:09.247Z,34.73
2018-10-18T15:02:38.067Z,34.98
2018-10-18T15:05:07.985Z,35.38
2018-10-18T15:07:36.770Z,35.11
2018-10-18T15:10:06.788Z,35.60
2018-10-18T15:12:35.617Z,36.21
2018-10-18T15:15:04.461Z,37.02
2018-10-18T15:17:33.185Z,36.20
2018-10-18T15:20:02.003Z,36.99
2018-10-18T15:22:30.754Z,38.20
2018-10-18T15:25:00.463Z,40.41
2018-10-18T15:27:29.241Z,41.27
2018-10-18T15:29:57.990Z,42.16
2018-10-18T15:32:26.692Z,42.84
2018-10-18T15:34:57.385Z,43.04
2018-10-18T15:37:26.119Z,43.41
2018-10-18T15:39:54.954Z,43.36
2018-10-18T15:42:23.801Z,43.66
2018-10-18T15:44:52.610Z,44.34
2018-10-18T15:47:21.391Z,44.07
2018-10-18T15:49:50.112Z,44.84
2018-10-18T15:52:19.001Z,45.01
2018-10-18T15:54:49.771Z,45.11
2018-10-18T15:57:18.623Z,45.38
2018-10-18T15:59:47.410Z,45.50
2018-10-18T16:02:16.210Z,46.08
2018-10-18T16:04:44.973Z,46.18
2018-10-18T16:07:13.657Z,46.02
2018-10-18T16:09:42.379Z,46.30
2018-10-18T16:12:11.600Z,46.37
2018-10-18T16:14:40.331Z,46.87
2018-10-18T16:17:09.097Z,46.92
2018-10-18T16:19:37.798Z,47.33
2018-10-18T16:22:06.679Z,46.82
2018-10-18T16:24:35.409Z,47.65
2018-10-18T16:27:04.141Z,46.97
2018-10-18T16:29:32.943Z,46.61
2018-10-18T16:32:02.627Z,47.01
2018-10-18T16:34:31.377Z,47.01
2018-10-18T16:37:00.294Z,47.39
2018-10-18T16:39:29.059Z,47.13
2018-10-18T16:41:57.765Z,46.59
2018-10-18T16:44:26.525Z,46.13
2018-10-18T16:46:55.218Z,46.57
2018-10-18T16:49:23.928Z,46.00
2018-10-18T16:51:52.650Z,45.20
2018-10-18T16:54:21.378Z,45.14
2018-10-18T16:56:50.111Z,44.81
2018-10-18T16:59:18.845Z,44.59
2018-10-18T17:01:47.537Z,44.46
2018-10-18T17:04:16.480Z,44.27
2018-10-18T17:06:45.388Z,44.16
2018-10-18T17:09:14.264Z,44.03
2018-10-18T17:11:42.949Z,44.02
2018-10-18T17:14:11.768Z,44.77
2018-10-18T17:16:40.470Z,44.66
2018-10-18T17:19:09.224Z,44.23
2018-10-18T17:21:37.885Z,44.82
2018-10-18T17:24:06.622Z,44.72
2018-10-18T17:26:36.329Z,45.24
2018-10-18T17:29:05.023Z,44.98
2018-10-18T17:31:33.697Z,44.94
2018-10-18T17:34:02.393Z,44.71
2018-10-18T17:36:31.126Z,45.52
2018-10-18T17:38:59.798Z,45.27
2018-10-18T17:41:28.499Z,45.76
2018-10-18T17:43:57.208Z,45.70
2018-10-18T17:46:25.950Z,45.98
2018-10-18T17:48:54.642Z,46.20
2018-10-18T17:51:23.426Z,46.06
2018-10-18T17:53:52.274Z,45.95
2018-10-18T17:56:21.047Z,46.44
2018-10-18T17:58:49.761Z,46.34
2018-10-18T18:02:47.562Z,46.86
2018-10-18T18:05:16.333Z,47.18
2018-10-18T18:07:45.119Z,47.23
2018-10-18T18:10:15.591Z,47.63
2018-10-18T18:12:44.407Z,47.50
2018-10-18T18:15:13.216Z,48.13
2018-10-18T18:17:41.898Z,48.19
2018-10-18T18:20:12.005Z,48.72
2018-10-18T18:22:40.979Z,49.36
2018-10-18T18:25:11.172Z,49.99
2018-10-18T18:27:40.151Z,50.19
2018-10-18T18:30:14.652Z,50.07
2018-10-18T18:32:43.980Z,50.13
2018-10-18T18:35:12.733Z,49.62
2018-10-18T18:37:41.475Z,50.61
2018-10-18T18:40:10.742Z,50.46
2018-10-18T18:42:40.457Z,50.93
2018-10-18T18:45:15.259Z,51.05
2018-10-18T18:47:43.838Z,51.58
2018-10-18T18:50:12.867Z,51.37
2018-10-18T18:52:41.571Z,51.81
2018-10-18T18:55:11.030Z,52.60
2018-10-18T18:57:40.005Z,52.59
2018-10-18T19:00:12.371Z,53.14
2018-10-18T19:02:41.030Z,53.04
2018-10-18T19:05:10.048Z,53.35
2018-10-18T19:07:38.674Z,53.81
2018-10-18T19:10:08.771Z,53.71
2018-10-18T19:12:37.443Z,53.57
2018-10-18T19:15:07.538Z,53.81
2018-10-18T19:17:36.252Z,53.87
2018-10-18T19:20:05.060Z,54.39
2018-10-18T19:22:33.796Z,53.93
2018-10-18T19:25:02.508Z,54.71
2018-10-18T19:27:31.189Z,54.14
2018-10-18T19:29:59.886Z,54.77
2018-10-18T19:32:28.555Z,54.94
2018-10-18T19:34:57.532Z,55.01
2018-10-18T19:37:26.199Z,55.58
2018-10-18T19:39:54.994Z,55.24
2018-10-18T19:42:23.686Z,55.18
2018-10-18T19:44:52.409Z,55.59
2018-10-18T19:47:21.214Z,55.65
2018-10-18T19:49:49.921Z,56.39
2018-10-18T19:52:19.082Z,55.83
2018-10-18T19:54:50.247Z,56.49
2018-10-18T19:57:19.857Z,56.69
2018-10-18T19:59:48.544Z,56.33
2018-10-18T20:02:17.193Z,56.57
2018-10-18T20:04:46.940Z,56.67
2018-10-18T20:07:15.622Z,56.52
2018-10-18T20:09:44.363Z,56.65
2018-10-18T20:12:16.635Z,56.32
2018-10-18T20:14:45.221Z,56.83
2018-10-18T20:17:13.892Z,57.26
2018-10-18T20:19:42.608Z,56.81
2018-10-18T20:22:12.965Z,57.36
2018-10-18T20:24:41.757Z,56.92
2018-10-18T20:27:11.250Z,57.07
2018-10-18T20:29:39.948Z,57.54
2018-10-18T20:32:08.646Z,57.67
2018-10-18T20:34:37.328Z,57.36
2018-10-18T20:37:06.793Z,57.72
2018-10-18T20:39:35.480Z,57.58
2018-10-18T20:42:04.368Z,57.21
2018-10-18T20:44:33.167Z,56.97
2018-10-18T20:47:01.888Z,57.29
2018-10-18T20:49:30.500Z,57.35
2018-10-18T20:51:59.256Z,57.08
2018-10-18T20:55:57.322Z,57.40
2018-10-18T20:58:25.988Z,57.43
2018-10-18T21:00:54.748Z,57.47
2018-10-18T21:03:23.469Z,56.69
2018-10-18T21:05:52.185Z,57.50
2018-10-18T21:08:20.839Z,57.09
2018-10-18T21:10:49.475Z,56.99
2018-10-18T21:13:18.174Z,57.08
2018-10-18T21:16:01.555Z,57.42
2018-10-18T21:18:30.205Z,57.67
2018-10-18T21:20:58.954Z,58.16
2018-10-18T21:23:27.676Z,58.15
2018-10-18T21:25:56.358Z,57.99
2018-10-18T21:28:25.007Z,58.24
2018-10-18T21:30:53.686Z,58.09
2018-10-18T21:36:00.087Z,58.42
2018-10-18T21:38:28.744Z,57.88
2018-10-18T21:40:57.512Z,58.47
2018-10-18T21:43:26.273Z,58.84
2018-10-18T21:45:57.413Z,59.22
2018-10-18T21:48:27.611Z,59.44
2018-10-18T21:50:56.497Z,59.36
2018-10-18T21:53:25.163Z,59.59
2018-10-18T21:55:53.860Z,59.89
2018-10-18T21:58:22.507Z,59.93
2018-10-18T22:00:51.162Z,59.85
2018-10-18T22:03:19.808Z,60.12
2018-10-18T22:05:48.423Z,60.56
2018-10-18T22:08:17.127Z,60.80
2018-10-18T22:10:45.793Z,60.88
2018-10-18T22:13:14.534Z,60.93
2018-10-18T22:15:43.246Z,61.19
2018-10-18T22:18:11.934Z,61.46
2018-10-18T22:20:40.570Z,62.17
2018-10-18T22:23:09.892Z,61.80
2018-10-18T22:25:38.502Z,61.71
2018-10-18T22:28:07.241Z,61.93
2018-10-18T22:30:35.893Z,62.08
2018-10-18T22:33:04.572Z,62.09
2018-10-18T22:35:33.202Z,62.09
2018-10-18T22:38:01.813Z,62.21
2018-10-18T22:40:30.463Z,62.31
2018-10-18T22:42:59.153Z,62.66
2018-10-18T22:45:27.789Z,62.66
2018-10-18T22:47:56.644Z,62.09
2018-10-18T22:50:25.284Z,62.41
2018-10-18T22:52:53.973Z,61.85
2018-10-18T22:55:22.647Z,62.03
2018-10-18T22:57:51.300Z,62.07
2018-10-18T23:00:19.900Z,61.46
2018-10-18T23:02:48.642Z,62.45
2018-10-18T23:05:17.399Z,62.30
2018-10-18T23:07:46.043Z,62.66
2018-10-18T23:10:14.721Z,62.43
2018-10-18T23:12:43.345Z,62.62
2018-10-18T23:15:12.215Z,63.13
2018-10-18T23:17:40.871Z,62.74
2018-10-18T23:20:10.101Z,63.33
2018-10-18T23:22:38.737Z,63.12
2018-10-18T23:25:07.525Z,63.26
2018-10-18T23:27:36.176Z,62.96
2018-10-18T23:30:09.051Z,63.76
2018-10-18T23:32:37.816Z,63.87
2018-10-18T23:35:06.816Z,64.98
2018-10-18T23:37:35.454Z,65.01
2018-10-18T23:40:04.453Z,65.14
2018-10-18T23:42:33.060Z,65.16
2018-10-18T23:45:01.717Z,64.53
2018-10-18T23:47:30.334Z,64.90
2018-10-18T23:49:58.963Z,64.70
2018-10-18T23:52:27.618Z,64.74
2018-10-18T23:56:25.606Z,64.85
2018-10-18T23:58:54.213Z,65.72
